Map

Track Data

SID SEASON NUMBER BASIN SUBBASIN NAME ISO_TIME NATURE LAT LON WMO_WIND WMO_PRES WMO_AGENCY TRACK_TYPE DIST2LAND LANDFALL IFLAG USA_AGENCY USA_ATCF_ID USA_LAT USA_LON USA_RECORD USA_STATUS USA_WIND USA_PRES USA_SSHS USA_R34_NE USA_R34_SE USA_R34_SW USA_R34_NW USA_R50_NE USA_R50_SE USA_R50_SW USA_R50_NW USA_R64_NE USA_R64_SE USA_R64_SW USA_R64_NW USA_POCI USA_ROCI USA_RMW USA_EYE TOKYO_LAT TOKYO_LON TOKYO_GRADE TOKYO_WIND TOKYO_PRES TOKYO_R50_DIR TOKYO_R50_LONG TOKYO_R50_SHORT TOKYO_R30_DIR TOKYO_R30_LONG TOKYO_R30_SHORT TOKYO_LAND CMA_LAT CMA_LON CMA_CAT CMA_WIND CMA_PRES HKO_LAT HKO_LON HKO_CAT HKO_WIND HKO_PRES NEWDELHI_LAT NEWDELHI_LON NEWDELHI_GRADE NEWDELHI_WIND NEWDELHI_PRES NEWDELHI_CI NEWDELHI_DP NEWDELHI_POCI REUNION_LAT REUNION_LON REUNION_TYPE REUNION_WIND REUNION_PRES REUNION_TNUM REUNION_CI REUNION_RMW REUNION_R34_NE REUNION_R34_SE REUNION_R34_SW REUNION_R34_NW REUNION_R50_NE REUNION_R50_SE REUNION_R50_SW REUNION_R50_NW REUNION_R64_NE REUNION_R64_SE REUNION_R64_SW REUNION_R64_NW BOM_LAT BOM_LON BOM_TYPE BOM_WIND BOM_PRES BOM_TNUM BOM_CI BOM_RMW BOM_R34_NE BOM_R34_SE BOM_R34_SW BOM_R34_NW BOM_R50_NE BOM_R50_SE BOM_R50_SW BOM_R50_NW BOM_R64_NE BOM_R64_SE BOM_R64_SW BOM_R64_NW BOM_ROCI BOM_POCI BOM_EYE BOM_POS_METHOD BOM_PRES_METHOD NADI_LAT NADI_LON NADI_CAT NADI_WIND NADI_PRES WELLINGTON_LAT WELLINGTON_LON WELLINGTON_WIND WELLINGTON_PRES DS824_LAT DS824_LON DS824_STAGE DS824_WIND DS824_PRES TD9636_LAT TD9636_LON TD9636_STAGE TD9636_WIND TD9636_PRES TD9635_LAT TD9635_LON TD9635_WIND TD9635_PRES TD9635_ROCI NEUMANN_LAT NEUMANN_LON NEUMANN_CLASS NEUMANN_WIND NEUMANN_PRES MLC_LAT MLC_LON MLC_CLASS MLC_WIND MLC_PRES USA_GUST BOM_GUST BOM_GUST_PER REUNION_GUST REUNION_GUST_PER USA_SEAHGT USA_SEARAD_NE USA_SEARAD_SE USA_SEARAD_SW USA_SEARAD_NW STORM_SPEED STORM_DIR
1893212N20088 1893 24 NI BB NOT_NAMED 1893-07-31 00:00:00 TS 20.3000 88.0000 main 113 113 _________O____ -1 20.3000 88.0000 TC 30 0 0
1893212N20088 1893 24 NI BB NOT_NAMED 1893-07-31 03:00:00 TS 20.3000 88.0000 main 113 113 _________PO___ -1 20.3000 88.0000 TC 30 20.3000 88.0000 1 0 0
1893212N20088 1893 24 NI BB NOT_NAMED 1893-07-31 06:00:00 TS 20.3019 87.9963 main 113 113 _________OP___ -1 20.3000 88.0000 TC 30 20.3047 87.9906 1 0 0
1893212N20088 1893 24 NI BB NOT_NAMED 1893-07-31 09:00:00 TS 20.3032 87.9936 main 113 113 _________PP___ -1 20.3000 88.0000 TC 30 20.3075 87.9850 1 0 0
1893212N20088 1893 24 NI BB NOT_NAMED 1893-07-31 12:00:00 TS 20.3033 87.9935 main 113 113 _________OP___ -1 20.3000 88.0000 TC 30 20.3066 87.9869 1 0 0
1893212N20088 1893 24 NI BB NOT_NAMED 1893-07-31 15:00:00 TS 20.3000 88.0000 main 113 113 _________PO___ -1 20.3000 88.0000 TC 30 20.3000 88.0000 1 0 0
1893212N20088 1893 24 NI BB NOT_NAMED 1893-07-31 18:00:00 TS 20.2939 88.0122 main 113 113 _________OP___ -1 20.3000 88.0000 TC 30 20.2878 88.0243 1 0 112
1893212N20088 1893 24 NI BB NOT_NAMED 1893-07-31 21:00:00 TS 20.2850 88.0300 main 113 113 _________PP___ -1 20.2925 88.0150 TC 30 20.2774 88.0449 1 0 0
1893212N20088 1893 24 NI BB NOT_NAMED 1893-08-01 00:00:00 TS 20.2892 88.0215 main 113 113 _________OP___ -1 20.3000 88.0000 TC 30 20.2784 88.0430 1 1 298
1893212N20088 1893 24 NI BB NOT_NAMED 1893-08-01 03:00:00 TS 20.3175 87.9650 main 113 99 _________PO___ -1 20.3350 87.9300 TC 30 20.3000 88.0000 1 2 296
1893212N20088 1893 24 NI BB NOT_NAMED 1893-08-01 06:00:00 TS 20.3707 87.8425 main 89 80 _________OP___ -1 20.4000 87.8000 TC 30 20.3414 87.8850 1 3 294
1893212N20088 1893 24 NI BB NOT_NAMED 1893-08-01 09:00:00 TS 20.4451 87.6650 main 80 56 _________PP___ -1 20.4851 87.6000 TC 30 20.4052 87.7300 1 4 297
1893212N20088 1893 24 NI BB NOT_NAMED 1893-08-01 12:00:00 TS 20.5457 87.4800 main 56 31 _________OP___ -1 20.6000 87.4000 TC 30 20.4914 87.5600 1 4 307
1893212N20088 1893 24 NI BB NOT_NAMED 1893-08-01 15:00:00 TS 20.6712 87.3425 main 31 31 _________PO___ -1 20.7425 87.2850 TC 30 20.6000 87.4000 1 3 323
1893212N20088 1893 24 NI BB NOT_NAMED 1893-08-01 18:00:00 TS 20.8078 87.2749 main 31 23 _________OP___ -1 20.9000 87.2000 TC 30 20.7156 87.3499 1 3 339
1893212N20088 1893 24 NI BB NOT_NAMED 1893-08-01 21:00:00 TS 20.9443 87.2317 main 23 23 _________PP___ -1 21.0347 87.1597 TC 30 20.8539 87.3038 1 3 332
1893212N20088 1893 24 NI BB NOT_NAMED 1893-08-02 00:00:00 TS 21.1077 87.1029 main 30 0 _________OP___ -1 21.2000 87.0000 TC 30 21.0153 87.2059 1 6 312
1893212N20088 1893 24 NI BB NOT_NAMED 1893-08-02 03:00:00 TS 21.3214 86.7801 main 0 0 _________PO___ -1 21.4427 86.5603 TC 30 21.2000 87.0000 1 9 301
1893212N20088 1893 24 NI BB NOT_NAMED 1893-08-02 06:00:00 TS 21.5560 86.3139 main 0 0 _________OP___ -1 21.7000 86.0000 TC 30 21.4120 86.6277 1 10 297
1893212N20088 1893 24 NI BB NOT_NAMED 1893-08-02 09:00:00 TS 21.7789 85.8290 main 0 0 _________PP___ -1 21.9147 85.5148 TC 30 21.6430 86.1432 1 10 295
1893212N20088 1893 24 NI BB NOT_NAMED 1893-08-02 12:00:00 TS 21.9887 85.2935 main 0 0 _________OP___ -1 22.1000 85.0000 TC 30 21.8774 85.5869 1 11 291
1893212N20088 1893 24 NI BB NOT_NAMED 1893-08-02 15:00:00 TS 22.1750 84.7036 main 0 0 _________PO___ -1 22.2500 84.4073 TC 30 22.1000 85.0000 1 11 288
1893212N20088 1893 24 NI BB NOT_NAMED 1893-08-02 18:00:00 TS 22.3447 84.1170 main 0 0 _________OP___ -1 22.4000 83.8000 TC 30 22.2894 84.4340 1 11 288
1893212N20088 1893 24 NI BB NOT_NAMED 1893-08-02 21:00:00 TS 22.5324 83.5422 main 0 0 _________PP___ -1 22.5998 83.2350 TC 30 22.4651 83.8494 1 11 290
1893212N20088 1893 24 NI BB NOT_NAMED 1893-08-03 00:00:00 TS 22.7166 82.9826 main 0 0 _________OP___ -1 22.8000 82.7000 TC 30 22.6332 83.2652 1 11 289
1893212N20088 1893 24 NI BB NOT_NAMED 1893-08-03 03:00:00 TS 22.8749 82.4461 main 0 0 _________PO___ -1 22.9498 82.1922 TC 30 22.8000 82.7000 1 10 288
1893212N20088 1893 24 NI BB NOT_NAMED 1893-08-03 06:00:00 TS 23.0352 81.9329 main 0 0 _________OP___ -1 23.1000 81.7000 TC 30 22.9704 82.1658 1 10 290
1893212N20088 1893 24 NI BB NOT_NAMED 1893-08-03 09:00:00 TS 23.2171 81.4234 main 0 0 _________PP___ -1 23.2924 81.1925 TC 30 23.1418 81.6544 1 10 292
1893212N20088 1893 24 NI BB NOT_NAMED 1893-08-03 12:00:00 TS 23.4087 80.9329 main 0 0 _________OP___ -1 23.5000 80.7000 TC 30 23.3174 81.1658 1 10 294
1893212N20088 1893 24 NI BB NOT_NAMED 1893-08-03 15:00:00 TS 23.5999 80.4674 main 0 0 _________PO___ -1 23.6999 80.2349 TC 30 23.5000 80.7000 1 9 295
1893212N20088 1893 24 NI BB NOT_NAMED 1893-08-03 18:00:00 TS 23.7810 80.0605 main 0 0 _________OP___ -1 23.9000 79.8000 TC 30 23.6917 80.2559 1 8 297
1893212N20088 1893 24 NI BB NOT_NAMED 1893-08-03 21:00:00 TS 23.9746 79.6543 main 0 0 _________PP___ -1 24.1002 79.3927 TC 30 23.8908 79.8286 1 8 298
1893212N20088 1893 24 NI BB NOT_NAMED 1893-08-04 00:00:00 TS 24.1630 79.2746 main 0 0 _________OP___ -1 24.3000 79.0000 TC 30 24.0945 79.4120 1 7 299
1893212N20088 1893 24 NI BB NOT_NAMED 1893-08-04 03:00:00 NR 24.3000 79.0000 main 0 __________O___ -1 TC 24.3000 79.0000 1 6 299

About IBTrACS Database

This database is a web-friendly format of International Best Track Archive for Climate Stewardship (IBTrACS), a global best track data archive curated by NOAA dating back to 1842.

Updated: 2021-12-03